Latest Weather Observations for Melbourne

IDV60801

Issued at 2:05 pm EST Saturday 2 August 2014 (issued every 30 minutes, with the page automatically refreshed every 10 minutes)

About weather observations | Map of weather stations | Latest weather observations for VIC | Other Formats
Station Details ID: 086071 Name: MELBOURNE REGIONAL OFFICE Lat: -37.81 Lon: 144.97 Height: 31.15 m
Data from the previous 72 hours. | See also: Recent months at Melbourne

* Apparent temperature (App Temp) for Melbourne is calculated using temperature observations collected at Melbourne and wind observations collected at Melbourne (Olympic Park), as wind observations are not currently provided for Melbourne.

Date/Time
EST
Temp
°C
App
Temp
°C
Dew
Point
Rel
Hum
%
Delta-T
°C
Wind Press
QNH
hPa
Press
MSL
hPa
Rain
since 9 am
mm
Dir
 
Spd
km/h
Gust
km/h
Spd
kts
Gust
kts
02/02:00pm 12.0 9.4 0.9 46 4.6 - 4 - 2 - 1030.2 - 0.4
02/01:30pm 11.5 8.8 0.5 46 4.5 - 4 - 2 - 1030.3 - 0.4
02/01:00pm 12.2 9.8 2.2 50 4.3 - 4 - 2 - 1030.5 - 0.4
02/12:30pm 11.0 8.7 2.6 56 3.6 - 4 - 2 - 1030.7 - 0.4
02/12:00pm 10.9 8.9 2.4 55 3.6 - 2 - 1 - 1031.0 1031.1 0.4
02/11:30am 10.4 8.5 2.9 59 3.2 - 2 - 1 - 1031.1 - 0.4
02/11:00am 9.9 7.3 3.1 62 2.9 - 6 - 3 - 1031.0 - 0.4
02/10:30am 7.4 5.2 3.1 74 1.8 - 4 - 2 - 1030.8 - 0.4
02/10:00am 6.5 3.3 3.1 79 1.4 - 9 - 5 - 1030.4 - 0.4
02/09:30am 5.6 3.8 3.4 86 0.9 - 2 - 1 - 1030.4 - 0.0
02/09:00am 5.1 2.4 2.9 86 0.9 - 6 - 3 - 1029.8 1029.9 14.4
02/08:30am 5.1 2.4 2.6 84 1.0 - 6 - 3 - 1029.3 - 14.4
02/08:00am 5.0 3.2 1.4 77 1.4 CALM 0 - 0 - 1028.6 - 14.4
02/07:30am 4.9 2.1 1.9 81 1.2 - 6 - 3 - 1028.2 - 14.4
02/07:00am 5.0 2.1 2.5 84 1.0 - 7 - 4 - 1027.7 - 14.4
02/06:30am 5.0 2.1 2.8 86 0.9 - 7 - 4 - 1027.0 - 14.4
02/06:00am 5.2 1.8 1.9 79 1.3 - 9 - 5 - 1026.9 1027.0 13.4
02/05:30am 5.0 2.0 1.7 79 1.3 - 7 - 4 - 1025.9 - 13.4
02/05:00am 5.2 2.8 2.2 81 1.2 - 4 - 2 - 1025.6 - 13.4
02/04:30am 4.9 2.9 2.1 82 1.1 - 2 - 1 - 1025.4 - 13.4
02/04:00am 5.3 1.9 2.0 79 1.3 - 9 - 5 - 1025.1 - 13.4
02/03:30am 5.4 2.0 1.9 78 1.4 - 9 - 5 - 1024.5 - 13.4
02/03:00am 5.6 2.3 2.4 80 1.3 - 9 - 5 - 1024.2 1024.3 13.4
02/02:30am 5.7 2.0 2.2 78 1.4 - 11 - 6 - 1024.1 - 13.4
02/02:00am 5.8 2.4 2.1 77 1.5 - 9 - 5 - 1023.7 - 13.4
02/01:30am 5.4 2.1 2.4 81 1.2 - 9 - 5 - 1023.5 - 13.4
02/01:00am 5.8 2.1 2.3 78 1.4 - 11 - 6 - 1023.1 - 13.4
02/12:30am 5.8 2.3 3.4 84 1.0 - 11 - 6 - 1022.9 - 13.4
02/12:00am 6.0 2.5 3.6 84 1.0 - 11 - 6 - 1022.6 1022.7 13.4
 
Date/Time
EST
Temp
°C
App
Temp
°C
Dew
Point
Rel
Hum
%
Delta-T
°C
Wind Press
QNH
hPa
Press
MSL
hPa
Rain
since 9 am
mm
Dir
 
Spd
km/h
Gust
km/h
Spd
kts
Gust
kts
01/11:30pm 6.2 2.5 2.5 77 1.5 - 11 - 6 - 1022.3 - 13.2
01/11:00pm 6.4 2.7 2.5 76 1.6 - 11 - 6 - 1021.7 - 13.2
01/10:30pm 6.3 2.7 3.2 80 1.3 - 11 - 6 - 1021.1 - 13.2
01/10:00pm 6.3 3.3 3.9 85 1.0 - 9 - 5 - 1020.7 - 13.2
01/09:30pm 6.4 3.0 3.8 83 1.1 - 11 - 6 - 1020.2 - 12.4
01/09:00pm 6.3 2.8 3.7 83 1.1 - 11 - 6 - 1019.5 1019.6 12.4
01/08:30pm 6.2 2.8 4.1 86 0.9 - 11 - 6 - 1018.8 - 12.4
01/08:00pm 6.5 3.6 4.4 86 0.9 - 9 - 5 - 1018.7 - 12.2
01/07:30pm 6.7 2.9 3.9 82 1.2 - 13 - 7 - 1017.6 - 11.4
01/07:00pm 6.8 3.4 4.2 83 1.1 - 11 - 6 - 1016.1 - 10.4
01/06:30pm 6.3 3.0 4.4 88 0.8 - 11 - 6 - 1015.9 - 9.0
01/06:00pm 7.5 3.7 4.0 78 1.5 - 13 - 7 - 1014.7 1014.9 5.6
01/05:30pm 7.4 4.1 4.4 81 1.3 - 11 - 6 - 1013.5 - 5.4
01/05:00pm 7.1 4.1 4.1 81 1.3 - 9 - 5 - 1013.1 - 4.2
01/04:30pm 7.1 2.1 3.6 78 1.5 - 19 - 10 - 1012.3 - 4.0
01/04:00pm 9.4 5.0 2.9 64 2.8 - 15 - 8 - 1010.9 - 2.0
01/03:30pm 9.4 5.4 3.1 65 2.7 - 13 - 7 - 1010.1 - 2.0
01/03:00pm 8.6 5.6 4.0 73 2.0 - 9 - 5 - 1009.5 1009.6 2.0
01/02:30pm 7.6 5.1 4.6 81 1.3 - 7 - 4 - 1009.1 - 2.0
01/02:00pm 7.3 2.9 4.6 83 1.2 - 17 - 9 - 1008.7 - 1.6
01/01:30pm 7.6 3.0 3.6 76 1.7 - 17 - 9 - 1008.1 - 0.8
01/01:00pm 8.9 4.6 3.3 68 2.4 - 15 - 8 - 1007.3 - 0.2
01/12:30pm 7.9 2.7 2.7 69 2.2 - 19 - 10 - 1006.9 - 0.2
01/12:00pm 7.1 2.0 3.3 77 1.6 - 19 - 10 - 1006.4 1006.5 0.2
01/11:30am 9.5 4.2 -0.6 49 4.0 - 17 - 9 - 1005.7 - 0.0
01/11:00am 9.8 3.9 -0.8 47 4.2 - 20 - 11 - 1005.3 - 0.0
01/10:30am 9.6 4.0 0.2 52 3.8 - 19 - 10 - 1004.8 - 0.0
01/10:00am 8.6 3.9 0.7 57 3.2 - 15 - 8 - 1005.1 - 0.0
01/09:30am 8.1 2.6 0.3 58 3.1 - 19 - 10 - 1004.0 - 0.0
01/09:00am 7.6 2.8 0.3 60 2.9 - 15 - 8 - 1003.8 1003.9 6.8
01/08:30am 7.2 2.1 0.7 63 2.6 - 17 - 9 - 1003.5 - 6.8
01/08:00am 6.5 1.4 0.7 66 2.3 - 17 - 9 - 1003.9 - 6.8
01/07:30am 6.5 0.7 0.1 63 2.5 - 20 - 11 - 1003.4 - 6.8
01/07:00am 6.8 2.4 0.2 63 2.6 - 13 - 7 - 1002.8 - 6.8
01/06:30am 6.7 1.5 0.4 64 2.5 - 17 - 9 - 1001.4 - 6.8
01/06:00am 6.6 2.2 0.5 65 2.4 - 13 - 7 - 1001.8 1001.9 6.8
01/05:30am 6.7 1.9 0.4 64 2.5 - 15 - 8 - 1002.0 - 6.8
01/05:00am 6.6 2.2 0.2 63 2.5 - 13 - 7 - 1002.1 - 6.8
01/04:30am 6.2 1.9 0.9 69 2.1 - 13 - 7 - 1002.2 - 6.8
01/04:00am 6.2 1.5 0.9 69 2.1 - 15 - 8 - 1002.5 - 6.8
01/03:30am 6.9 2.2 0.6 64 2.5 - 15 - 8 - 1002.2 - 6.8
01/03:00am 6.9 1.8 0.6 64 2.5 - 17 - 9 - 1002.7 1002.7 6.8
01/02:30am 7.0 3.0 0.7 64 2.5 - 11 - 6 - 1002.7 - 6.8
01/02:00am 7.3 3.3 0.5 62 2.7 - 11 - 6 - 1002.6 - 6.8
01/01:30am 7.7 4.0 0.1 58 3.0 - 9 - 5 - 1002.0 - 6.8
01/01:00am 7.9 3.1 0.1 58 3.1 - 15 - 8 - 1001.7 - 6.8
01/12:30am 8.2 2.6 -0.1 56 3.3 - 19 - 10 - 1001.9 - 6.8
01/12:00am 8.4 2.8 -0.2 54 3.4 - 19 - 10 - 1002.0 1002.1 6.8
 
Date/Time
EST
Temp
°C
App
Temp
°C
Dew
Point
Rel
Hum
%
Delta-T
°C
Wind Press
QNH
hPa
Press
MSL
hPa
Rain
since 9 am
mm
Dir
 
Spd
km/h
Gust
km/h
Spd
kts
Gust
kts
31/11:30pm 8.6 3.0 0.1 55 3.4 - 19 - 10 - 1002.1 - 6.8
31/11:00pm 8.6 3.4 0.1 55 3.4 - 17 - 9 - 1002.2 - 6.8
31/10:30pm 8.4 3.7 1.1 60 3.0 - 15 - 8 - 1001.9 - 6.8
31/10:00pm 8.5 3.1 1.5 61 2.9 - 19 - 10 - 1001.4 - 6.8
31/09:30pm 8.7 3.3 1.2 59 3.1 - 19 - 10 - 1001.6 - 6.8
31/09:00pm 8.7 4.1 1.7 61 2.9 - 15 - 8 - 1001.4 1001.6 6.8
31/08:30pm 8.7 5.0 2.3 64 2.7 - 11 - 6 - 1001.2 - 6.8
31/08:00pm 8.2 4.1 4.1 75 1.8 - 15 - 8 - 1001.2 - 6.8
31/07:30pm 7.7 3.6 4.5 80 1.4 - 15 - 8 - 1000.9 - 6.8
31/07:00pm 7.6 4.4 4.9 83 1.2 - 11 - 6 - 1000.9 - 6.6
31/06:30pm 7.8 3.9 5.4 85 1.1 - 15 - 8 - 1000.5 - 6.6
31/06:00pm 7.5 3.1 5.0 84 1.1 - 17 - 9 - 1000.2 1000.2 6.2
31/05:30pm 8.0 3.7 5.3 83 1.2 - 17 - 9 - 999.9 - 5.6
31/05:00pm 8.3 4.1 5.9 85 1.1 - 17 - 9 - 999.6 - 4.2
31/04:30pm 8.9 5.4 7.0 88 0.9 - 15 - 8 - 999.2 - 1.8
31/04:00pm 9.5 6.0 7.2 85 1.1 - 15 - 8 - 998.6 - 0.8
31/03:30pm 11.3 7.1 7.6 78 1.8 - 19 - 10 - 997.6 - 0.0
31/03:00pm 16.4 9.0 3.8 43 5.9 - 32 - 17 - 995.9 996.4 0.0
31/02:30pm 19.2 12.9 1.5 30 8.0 - 24 - 13 - 994.1 - 0.0
31/02:00pm 19.3 11.5 2.0 31 7.9 - 32 - 17 - 994.5 - 0.0
31/01:30pm 19.1 11.9 2.9 34 7.5 - 30 - 16 - 994.2 - 0.0
31/01:00pm 18.4 10.2 2.7 35 7.2 - 35 - 19 - 995.1 - 0.0
31/12:30pm 18.2 10.6 3.0 36 7.0 - 32 - 17 - 996.2 - 0.0
31/12:00pm 17.5 9.3 2.8 37 6.8 - 35 - 19 - 997.5 997.7 0.0
31/11:30am 17.7 10.2 3.7 39 6.5 - 32 - 17 - 998.0 - 0.0
31/11:00am 16.9 9.8 5.6 47 5.5 - 32 - 17 - 998.9 - 0.0
31/10:30am 15.6 8.6 6.2 53 4.6 - 32 - 17 - 999.8 - 0.0
31/10:00am 15.5 8.3 6.0 53 4.6 - 33 - 18 - 999.8 - 0.0
31/09:30am 15.1 7.7 6.8 57 4.1 - 35 - 19 - 1000.1 - 0.0
31/09:00am 14.8 8.5 7.3 61 3.7 - 30 - 16 - 1000.7 1000.8 0.0
31/08:30am 14.5 8.5 7.2 61 3.6 - 28 - 15 - 1001.1 - 0.0
31/08:00am 14.1 8.1 7.2 63 3.4 - 28 - 15 - 1001.2 - 0.0
31/07:30am 14.0 8.4 7.3 64 3.3 - 26 - 14 - 1001.6 - 0.0
31/07:00am 14.0 7.6 7.1 63 3.4 - 30 - 16 - 1001.7 - 0.0
31/06:30am 14.1 8.5 7.0 62 3.5 - 26 - 14 - 1002.4 - 0.0
31/06:00am 14.0 9.5 6.8 62 3.5 - 20 - 11 - 1002.9 1002.9 0.0
31/05:30am 14.0 10.5 7.1 63 3.4 - 15 - 8 - 1003.4 - 0.0
31/05:00am 14.0 10.3 6.3 60 3.7 - 15 - 8 - 1003.9 - 0.0
31/04:30am 13.8 10.1 6.3 60 3.6 - 15 - 8 - 1004.4 - 0.0
31/04:00am 14.1 10.0 6.0 58 3.9 - 17 - 9 - 1005.0 - 0.0
31/03:30am 14.2 9.6 6.6 60 3.7 - 20 - 11 - 1005.5 - 0.0
31/03:00am 14.7 9.9 7.2 61 3.7 - 22 - 12 - 1006.2 1006.3 0.0
31/02:30am 15.6 10.1 6.1 53 4.6 - 24 - 13 - 1006.7 - 0.0
31/02:00am 15.3 10.7 6.7 56 4.2 - 20 - 11 - 1007.1 - 0.0
31/01:30am 15.4 10.9 7.1 57 4.1 - 20 - 11 - 1007.6 - 0.0
31/01:00am 15.4 11.7 8.1 61 3.7 - 17 - 9 - 1007.8 - 0.0
31/12:30am 15.7 11.5 7.5 58 4.1 - 19 - 10 - 1008.1 - 0.0
31/12:00am 15.4 11.8 8.5 63 3.5 - 17 - 9 - 1008.8 1008.8 0.0
 
Date/Time
EST
Temp
°C
App
Temp
°C
Dew
Point
Rel
Hum
%
Delta-T
°C
Wind Press
QNH
hPa
Press
MSL
hPa
Rain
since 9 am
mm
Dir
 
Spd
km/h
Gust
km/h
Spd
kts
Gust
kts
30/11:30pm 15.5 11.3 8.4 62 3.6 - 20 - 11 - 1009.1 - 0.0
30/11:00pm 15.8 12.0 7.6 58 4.1 - 17 - 9 - 1009.3 - 0.0
30/10:30pm 16.0 11.7 6.9 54 4.5 - 19 - 10 - 1009.7 - 0.0
30/10:00pm 16.1 11.5 6.5 53 4.7 - 20 - 11 - 1010.0 - 0.0
30/09:30pm 16.1 12.9 7.0 54 4.5 - 13 - 7 - 1010.1 - 0.0
30/09:00pm 16.1 12.3 7.7 57 4.2 - 17 - 9 - 1010.2 1010.4 0.0
30/08:30pm 16.4 12.4 6.7 52 4.8 - 17 - 9 - 1010.2 - 0.0
30/08:00pm 16.5 11.5 6.5 51 4.9 - 22 - 12 - 1010.0 - 0.0
30/07:30pm 16.7 12.3 7.3 54 4.7 - 20 - 11 - 1010.3 - 0.0
30/07:00pm 16.7 11.7 8.0 56 4.4 - 24 - 13 - 1010.1 - 0.0
30/06:30pm 16.6 12.2 8.8 60 4.0 - 22 - 12 - 1009.9 - 0.0
30/06:00pm 17.0 12.3 7.9 55 4.6 - 22 - 12 - 1010.1 1010.2 0.0
30/05:30pm 16.9 12.8 7.8 55 4.6 - 19 - 10 - 1009.9 - 0.0
30/05:00pm 17.0 12.8 8.2 56 4.5 - 20 - 11 - 1010.0 - 0.0
30/04:30pm 17.4 13.3 8.7 56 4.5 - 20 - 11 - 1010.0 - 0.0
30/04:00pm 17.4 13.4 8.9 57 4.4 - 20 - 11 - 1010.1 - 0.0
30/03:30pm 17.6 13.5 8.7 56 4.6 - 20 - 11 - 1010.1 - 0.0
30/03:00pm 17.9 14.0 8.6 54 4.8 - 19 - 10 - 1009.9 1010.0 0.0
30/02:30pm 18.5 13.8 9.2 54 4.9 - 24 - 13 - 1009.7 - 0.0

Other Formats:

Comma delimited format used in spreadsheet applications
http://www.bom.gov.au/fwo/IDV60801/IDV60801.94868.axf

JavaScript Object Notation format (JSON) in row-major order
http://www.bom.gov.au/fwo/IDV60801/IDV60801.94868.json